Time;durP1;ratioP1;P1;durP2;ratioP2;P2;SDS_P1;SDS_P2;PMS_P1;PMS_P2;Temp;Humidity;BMP_temperature;BMP_pressure;BME280_temperature;BME280_humidity;BME280_pressure;Samples;Min_cycle;Max_cycle;Signal;HPM_P1;HPM_P2
2022/08/20 00:02:08;;;;;;;50.75;42.35;;;19.20;99.90;;;;;;5047659;28;20051;-71
2022/08/20 00:04:35;;;;;;;47.08;41.10;;;19.10;99.90;;;;;;5063480;28;20048;-70
2022/08/20 00:07:05;;;;;;;46.88;41.20;;;19.10;99.90;;;;;;5062167;28;20048;-71
2022/08/20 00:09:33;;;;;;;49.25;42.05;;;19.00;99.90;;;;;;5066906;28;20546;-71
2022/08/20 00:12:05;;;;;;;50.83;45.08;;;19.10;99.90;;;;;;5068393;28;20146;-71
2022/08/20 00:14:34;;;;;;;47.95;42.78;;;19.10;99.90;;;;;;5048161;28;20044;-70
2022/08/20 00:17:02;;;;;;;52.13;41.80;;;19.20;99.90;;;;;;5071473;28;20036;-71
2022/08/20 00:19:29;;;;;;;45.90;40.92;;;19.20;99.90;;;;;;5064364;28;20040;-71
2022/08/20 00:21:56;;;;;;;49.13;42.85;;;19.20;99.90;;;;;;5070036;28;20048;-71
2022/08/20 00:24:25;;;;;;;51.55;45.28;;;19.20;99.90;;;;;;5066289;28;20485;-70
2022/08/20 00:26:52;;;;;;;50.03;43.65;;;19.30;99.90;;;;;;5041568;28;20055;-71
2022/08/20 00:29:19;;;;;;;55.10;45.58;;;19.30;99.90;;;;;;5043157;28;20632;-71
2022/08/20 00:31:49;;;;;;;50.72;44.60;;;19.20;99.90;;;;;;5070055;28;20605;-71
2022/08/20 00:34:16;;;;;;;50.80;44.58;;;19.10;99.90;;;;;;5071281;28;20048;-71
2022/08/20 00:36:42;;;;;;;50.92;45.42;;;19.10;99.90;;;;;;5047256;28;20601;-71
2022/08/20 00:39:12;;;;;;;52.72;44.50;;;19.10;99.90;;;;;;5052195;28;20043;-71
2022/08/20 00:41:39;;;;;;;54.17;44.35;;;19.00;99.90;;;;;;5070256;28;20764;-71
2022/08/20 00:44:13;;;;;;;52.80;46.03;;;18.90;99.90;;;;;;5070299;28;20052;-71
2022/08/20 00:46:42;;;;;;;50.47;45.13;;;18.80;99.90;;;;;;5063745;28;20096;-71
2022/08/20 00:49:14;;;;;;;53.15;45.17;;;18.90;99.90;;;;;;5064067;28;20131;-71
2022/08/20 00:51:52;;;;;;;50.22;44.85;;;18.80;99.90;;;;;;5068147;28;20524;-71
2022/08/20 00:54:25;;;;;;;52.70;45.33;;;18.80;99.90;;;;;;5068169;28;20151;-71
2022/08/20 00:56:57;;;;;;;54.38;45.47;;;18.80;99.90;;;;;;5034789;28;20082;-71
2022/08/20 00:59:28;;;;;;;47.72;42.67;;;18.70;99.90;;;;;;5068442;28;20131;-71
2022/08/20 01:01:56;;;;;;;52.03;44.70;;;18.70;99.90;;;;;;5073619;28;20043;-71
2022/08/20 01:04:30;;;;;;;55.80;46.85;;;18.70;99.90;;;;;;5049889;28;22045;-71
2022/08/20 01:06:57;;;;;;;55.47;46.03;;;18.70;99.90;;;;;;5051288;28;20112;-71
2022/08/20 01:09:24;;;;;;;53.80;44.65;;;18.70;99.90;;;;;;5069083;28;20047;-71
2022/08/20 01:12:12;;;;;;;57.30;46.85;;;18.80;99.90;;;;;;5062957;28;20040;-71
2022/08/20 01:14:43;;;;;;;53.15;45.55;;;18.80;99.90;;;;;;5070959;28;20043;-70
2022/08/20 01:17:16;;;;;;;54.42;46.28;;;18.80;99.90;;;;;;5034232;28;20079;-70
2022/08/20 01:20:09;;;;;;;53.28;44.90;;;18.90;99.90;;;;;;5049299;28;20297;-71
2022/08/20 01:25:47;;;;;;;52.08;46.47;;;18.90;99.90;;;;;;5067277;28;21310;-71
2022/08/20 01:28:18;;;;;;;52.20;46.53;;;18.90;99.90;;;;;;5068605;28;20089;-71
2022/08/20 01:30:45;;;;;;;50.50;44.90;;;18.90;99.90;;;;;;5047667;28;20048;-71
2022/08/20 01:33:12;;;;;;;50.05;44.55;;;18.90;99.90;;;;;;5064130;28;20680;-71
2022/08/20 01:35:40;;;;;;;50.65;45.38;;;19.00;99.90;;;;;;5049974;28;20119;-71
2022/08/20 01:38:08;;;;;;;55.38;45.97;;;19.20;99.90;;;;;;5071690;28;20087;-71
2022/08/20 01:40:56;;;;;;;54.17;47.60;;;19.20;99.90;;;;;;5067660;28;20098;-71
2022/08/20 01:43:23;;;;;;;54.33;48.05;;;19.10;99.90;;;;;;5045064;28;20052;-71
2022/08/20 01:45:52;;;;;;;53.90;47.60;;;19.10;99.90;;;;;;5061889;28;20044;-71
2022/08/20 01:48:20;;;;;;;55.00;48.78;;;19.10;99.90;;;;;;5069331;28;20055;-71
2022/08/20 01:51:06;;;;;;;54.03;48.33;;;19.10;99.90;;;;;;5066796;28;20079;-71
2022/08/20 01:53:38;;;;;;;54.67;48.78;;;19.10;99.90;;;;;;5066381;28;20505;-71
2022/08/20 01:56:07;;;;;;;52.47;46.80;;;19.10;99.90;;;;;;5042968;28;20149;-71
2022/08/20 01:58:38;;;;;;;56.03;45.90;;;19.10;99.90;;;;;;5071636;28;20594;-71
2022/08/20 02:01:05;;;;;;;55.63;46.22;;;19.00;99.90;;;;;;5044119;28;20052;-70
2022/08/20 02:03:33;;;;;;;55.47;47.70;;;18.90;99.90;;;;;;5046376;28;20095;-70
2022/08/20 02:06:06;;;;;;;52.55;44.80;;;19.00;99.90;;;;;;5054075;28;20568;-70
2022/08/20 02:08:33;;;;;;;55.78;45.40;;;19.00;99.90;;;;;;5071721;28;20067;-70
2022/08/20 02:10:59;;;;;;;53.45;45.28;;;19.00;99.90;;;;;;5059777;28;20060;-70
2022/08/20 02:13:26;;;;;;;54.78;46.22;;;19.00;99.90;;;;;;5065700;28;20599;-69
2022/08/20 02:15:53;;;;;;;53.22;44.20;;;19.00;99.90;;;;;;5072117;28;20073;-70
2022/08/20 02:18:21;;;;;;;54.17;45.08;;;19.00;99.90;;;;;;5074263;28;20048;-69
2022/08/20 02:20:50;;;;;;;50.92;44.88;;;19.10;99.90;;;;;;5052514;28;20478;-70
2022/08/20 02:23:17;;;;;;;52.95;44.67;;;19.00;99.90;;;;;;5074470;28;20044;-69
2022/08/20 02:25:46;;;;;;;51.20;43.67;;;19.10;99.90;;;;;;5070140;28;20071;-70
2022/08/20 02:28:15;;;;;;;46.78;41.58;;;19.10;99.90;;;;;;5072676;28;20036;-70
2022/08/20 02:30:46;;;;;;;48.28;40.35;;;19.10;99.90;;;;;;5055957;28;20055;-72
2022/08/20 02:33:16;;;;;;;50.10;41.67;;;19.10;99.90;;;;;;5072484;28;20103;-70
2022/08/20 02:35:46;;;;;;;49.25;39.78;;;19.10;99.90;;;;;;5049495;28;20059;-70
2022/08/20 02:38:14;;;;;;;45.72;40.70;;;19.10;99.90;;;;;;5057398;28;20089;-70
2022/08/20 02:40:43;;;;;;;47.92;40.10;;;19.20;99.90;;;;;;5074837;28;20124;-69
2022/08/20 02:43:11;;;;;;;43.08;37.42;;;19.20;99.90;;;;;;5075607;28;20054;-69
2022/08/20 02:45:42;;;;;;;44.10;39.33;;;19.30;99.90;;;;;;5071826;28;20044;-70
2022/08/20 02:48:19;;;;;;;48.72;40.03;;;19.20;99.90;;;;;;5060370;28;20508;-70
2022/08/20 02:50:53;;;;;;;46.15;40.60;;;19.30;99.90;;;;;;5098980;22;20105;-77
2022/08/20 02:53:21;;;;;;;45.17;40.05;;;19.30;99.90;;;;;;5063496;28;20048;-77
2022/08/20 02:55:48;;;;;;;45.67;40.60;;;19.30;99.90;;;;;;5088114;28;20278;-77
2022/08/20 02:58:15;;;;;;;47.00;39.70;;;19.40;99.90;;;;;;5067765;28;20055;-77
2022/08/20 03:00:42;;;;;;;43.00;38.50;;;19.30;99.90;;;;;;5077384;28;20035;-77
2022/08/20 03:03:11;;;;;;;44.17;39.03;;;19.30;99.90;;;;;;5083765;28;20097;-80
2022/08/20 03:05:40;;;;;;;43.05;36.65;;;19.40;99.90;;;;;;5100398;28;20292;-77
2022/08/20 03:08:10;;;;;;;42.67;36.72;;;19.40;99.90;;;;;;5082257;28;20130;-77
2022/08/20 03:10:39;;;;;;;42.85;37.30;;;19.40;99.90;;;;;;5067143;28;20299;-77
2022/08/20 03:13:10;;;;;;;43.72;38.35;;;19.40;99.90;;;;;;5069892;28;20067;-77
2022/08/20 03:15:38;;;;;;;45.13;37.45;;;19.30;99.90;;;;;;5073773;28;21247;-77
2022/08/20 03:18:06;;;;;;;42.38;37.75;;;19.30;99.90;;;;;;5075726;28;20048;-77
2022/08/20 03:20:33;;;;;;;42.22;36.45;;;19.20;99.90;;;;;;5081220;28;20109;-77
2022/08/20 03:23:00;;;;;;;41.25;36.60;;;19.20;99.90;;;;;;5057549;28;20060;-76
2022/08/20 03:25:27;;;;;;;46.47;35.60;;;19.10;99.90;;;;;;5081369;28;20532;-77
2022/08/20 03:27:56;;;;;;;42.15;36.97;;;19.10;99.90;;;;;;5076586;28;20566;-77
2022/08/20 03:30:25;;;;;;;40.45;34.85;;;19.10;99.90;;;;;;5080506;28;20040;-76
2022/08/20 03:32:52;;;;;;;45.92;34.05;;;19.10;99.90;;;;;;5079657;28;20269;-77
2022/08/20 03:35:21;;;;;;;38.40;34.00;;;19.20;99.90;;;;;;5073745;28;20232;-77
2022/08/20 03:37:48;;;;;;;42.60;33.75;;;19.20;99.90;;;;;;5072944;28;20101;-77
2022/08/20 03:40:20;;;;;;;41.75;34.13;;;19.20;99.90;;;;;;5079120;28;20271;-77
2022/08/20 03:42:47;;;;;;;42.95;34.53;;;19.20;99.90;;;;;;5078809;28;20052;-77
2022/08/20 03:45:14;;;;;;;43.85;36.30;;;19.30;99.90;;;;;;5089675;28;20089;-77
2022/08/20 03:47:47;;;;;;;42.15;35.10;;;19.30;99.90;;;;;;5093640;28;20067;-77
2022/08/20 03:50:17;;;;;;;41.40;34.67;;;19.30;99.90;;;;;;5080334;28;20493;-77
2022/08/20 03:52:53;;;;;;;43.25;36.10;;;19.30;99.90;;;;;;5050354;28;20051;-77
2022/08/20 03:55:22;;;;;;;47.95;35.42;;;19.30;99.90;;;;;;5086768;28;20044;-77
2022/08/20 03:58:00;;;;;;;50.42;35.55;;;19.30;99.90;;;;;;5076163;28;20028;-77
2022/08/20 04:00:34;;;;;;;78.30;42.13;;;19.30;99.90;;;;;;5091888;28;20643;-80
2022/08/20 04:03:01;;;;;;;76.20;40.60;;;19.10;99.90;;;;;;5084941;28;20409;-78
2022/08/20 04:05:29;;;;;;;93.07;42.63;;;18.90;99.90;;;;;;5080274;28;20040;-77
2022/08/20 04:07:58;;;;;;;94.30;43.15;;;18.70;99.90;;;;;;5067861;28;20120;-78
2022/08/20 04:10:29;;;;;;;106.15;44.25;;;18.50;99.90;;;;;;5089723;28;20142;-78
2022/08/20 04:12:56;;;;;;;117.28;47.00;;;18.50;99.90;;;;;;5074862;28;20105;-79
2022/08/20 04:15:23;;;;;;;132.20;48.85;;;18.50;99.90;;;;;;5092506;28;20044;-76
2022/08/20 04:17:51;;;;;;;138.48;48.65;;;18.50;99.90;;;;;;5083805;28;20111;-78
2022/08/20 04:20:22;;;;;;;123.30;42.78;;;18.50;99.90;;;;;;5076623;28;20047;-76
2022/08/20 04:22:51;;;;;;;92.70;38.17;;;18.40;99.90;;;;;;5097801;28;20093;-76
2022/08/20 04:25:27;;;;;;;85.63;36.83;;;18.30;99.90;;;;;;5078543;28;20117;-74
2022/08/20 04:27:56;;;;;;;102.35;38.33;;;18.20;99.90;;;;;;5091324;28;20359;-75
2022/08/20 04:30:24;;;;;;;66.30;29.85;;;18.00;99.90;;;;;;5057578;28;20455;-77
2022/08/20 04:32:52;;;;;;;47.78;22.67;;;17.90;99.90;;;;;;5083906;28;20079;-77
2022/08/20 04:35:20;;;;;;;64.55;29.20;;;17.90;99.90;;;;;;5076662;28;20085;-75
2022/08/20 04:37:47;;;;;;;77.20;30.75;;;17.90;99.90;;;;;;5067762;28;20056;-78
2022/08/20 04:43:03;;;;;;;71.53;28.05;;;18.00;99.90;;;;;;5095123;28;20047;-77
2022/08/20 04:45:31;;;;;;;89.28;30.35;;;18.00;99.90;;;;;;5086856;28;20036;-78
2022/08/20 04:48:04;;;;;;;95.75;33.08;;;18.00;99.90;;;;;;5086264;28;20035;-76
2022/08/20 04:50:35;;;;;;;106.07;35.92;;;18.10;99.90;;;;;;5095412;28;20301;-78
2022/08/20 04:53:08;;;;;;;97.18;33.58;;;18.10;99.90;;;;;;5066003;28;20052;-79
2022/08/20 04:55:38;;;;;;;104.10;35.03;;;18.10;99.90;;;;;;5079173;28;20035;-79
2022/08/20 04:58:08;;;;;;;104.25;38.17;;;18.10;99.90;;;;;;5096600;28;20055;-78
2022/08/20 05:00:35;;;;;;;129.73;37.28;;;18.10;99.90;;;;;;5072902;28;20040;-76
2022/08/20 05:03:02;;;;;;;111.63;36.70;;;18.20;99.90;;;;;;5076426;28;20055;-77
2022/08/20 05:05:29;;;;;;;139.05;39.97;;;18.20;99.90;;;;;;5073612;28;20040;-78
2022/08/20 05:07:57;;;;;;;107.00;36.25;;;18.20;99.90;;;;;;5076781;28;20047;-76
2022/08/20 05:10:24;;;;;;;103.20;33.05;;;18.20;99.90;;;;;;5082447;28;20048;-77
2022/08/20 05:12:51;;;;;;;128.70;34.40;;;18.20;99.90;;;;;;5069893;28;20035;-76
2022/08/20 05:15:24;;;;;;;116.13;33.30;;;18.30;99.90;;;;;;5082091;28;20054;-78
2022/08/20 05:18:02;;;;;;;69.13;23.90;;;18.20;99.90;;;;;;5099605;28;20077;-77
2022/08/20 05:20:32;;;;;;;68.97;23.23;;;18.20;99.90;;;;;;5061195;28;20070;-76
2022/08/20 05:22:59;;;;;;;62.65;23.52;;;18.10;99.90;;;;;;5086552;28;20078;-76
2022/08/20 05:25:28;;;;;;;65.40;22.30;;;18.10;99.90;;;;;;5080038;28;20417;-74
2022/08/20 05:28:19;;;;;;;58.50;22.08;;;18.20;99.90;;;;;;5061866;28;20558;-75
2022/08/20 05:30:47;;;;;;;46.72;19.58;;;18.30;99.90;;;;;;5065800;28;22100;-75
2022/08/20 05:33:17;;;;;;;49.50;19.30;;;18.30;99.90;;;;;;5082205;28;20965;-76
2022/08/20 05:35:46;;;;;;;44.92;19.60;;;18.20;99.90;;;;;;5076903;28;20851;-78
2022/08/20 05:38:15;;;;;;;48.20;19.13;;;18.20;99.90;;;;;;5063664;28;20059;-78
2022/08/20 05:40:43;;;;;;;50.90;19.40;;;18.20;99.90;;;;;;5079951;28;20043;-77
2022/08/20 05:43:10;;;;;;;51.00;19.02;;;18.20;99.90;;;;;;5076039;28;20600;-75
2022/08/20 05:45:41;;;;;;;48.65;20.13;;;18.10;99.90;;;;;;5096344;28;20681;-79
2022/08/20 05:48:14;;;;;;;48.25;21.60;;;18.20;99.90;;;;;;5078725;28;20466;-78
2022/08/20 05:50:44;;;;;;;55.35;20.70;;;18.40;99.90;;;;;;5079376;28;20075;-78
2022/08/20 05:53:11;;;;;;;59.97;22.88;;;18.40;99.90;;;;;;5085840;28;20357;-77
2022/08/20 05:55:38;;;;;;;68.82;25.85;;;18.20;99.90;;;;;;5061057;28;20040;-78
2022/08/20 05:58:13;;;;;;;66.38;25.73;;;18.10;99.90;;;;;;5076936;28;20440;-78
2022/08/20 06:00:40;;;;;;;61.28;23.70;;;18.10;99.90;;;;;;5071890;28;20244;-76
2022/08/20 06:05:52;;;;;;;66.43;21.63;;;18.10;99.90;;;;;;5086252;28;20123;-76
2022/08/20 06:08:19;;;;;;;47.08;20.10;;;18.10;99.90;;;;;;5072725;28;20101;-76
2022/08/20 06:10:46;;;;;;;44.90;19.33;;;18.20;99.90;;;;;;5082570;28;20305;-77
2022/08/20 06:13:12;;;;;;;48.65;20.38;;;18.30;99.90;;;;;;5080561;28;20052;-75
2022/08/20 06:15:40;;;;;;;58.65;21.63;;;18.30;99.90;;;;;;5067413;28;20559;-77
2022/08/20 06:18:08;;;;;;;63.17;23.42;;;18.30;99.90;;;;;;5073550;28;20052;-78
2022/08/20 06:20:55;;;;;;;72.55;25.85;;;18.30;99.90;;;;;;5082242;28;20524;-78
2022/08/20 06:23:24;;;;;;;64.30;25.55;;;18.30;99.90;;;;;;5075555;28;20383;-76
2022/08/20 06:25:51;;;;;;;76.18;29.25;;;18.30;99.90;;;;;;5084119;28;20401;-78
2022/08/20 06:28:18;;;;;;;82.70;29.77;;;18.30;99.90;;;;;;5055894;28;20101;-79
2022/08/20 06:30:45;;;;;;;97.57;31.50;;;18.40;99.90;;;;;;5096065;28;20051;-77
2022/08/20 06:33:11;;;;;;;89.15;30.05;;;18.40;99.90;;;;;;5060249;28;20056;-77
2022/08/20 06:35:38;;;;;;;89.25;32.13;;;18.40;99.90;;;;;;5060990;28;20061;-77
2022/08/20 06:38:05;;;;;;;80.82;29.13;;;18.50;99.90;;;;;;5094431;28;20071;-75
2022/08/20 06:40:33;;;;;;;70.68;28.80;;;18.60;99.90;;;;;;5060114;28;20660;-77
2022/08/20 06:43:00;;;;;;;45.35;22.73;;;18.50;99.90;;;;;;5081491;28;20044;-76
2022/08/20 06:45:31;;;;;;;38.72;20.33;;;18.60;99.90;;;;;;5076492;28;20270;-77
2022/08/20 06:48:00;;;;;;;34.45;17.73;;;18.60;99.90;;;;;;5096532;28;20059;-76
2022/08/20 06:50:38;;;;;;;31.25;18.33;;;18.60;99.90;;;;;;5094362;28;20044;-78
2022/08/20 06:53:14;;;;;;;;;;;18.60;99.90;;;;;;5070634;28;20051;-77
2022/08/20 06:55:47;;;;;;;27.45;16.23;;;18.60;99.90;;;;;;5082868;28;19972;-78
2022/08/20 06:58:14;;;;;;;31.52;17.63;;;18.50;99.90;;;;;;5068513;28;20040;-76
2022/08/20 07:01:01;;;;;;;32.95;17.45;;;18.50;99.90;;;;;;5085793;28;20040;-77
2022/08/20 07:03:40;;;;;;;31.23;18.70;;;18.40;99.90;;;;;;5086219;28;20048;-76
2022/08/20 07:06:22;;;;;;;;;;;18.40;99.90;;;;;;5075523;28;20044;-78
2022/08/20 07:08:49;;;;;;;35.75;19.80;;;18.40;99.90;;;;;;5073943;28;19919;-77
2022/08/20 07:11:15;;;;;;;38.25;21.35;;;18.40;99.90;;;;;;5076474;28;20047;-78
2022/08/20 07:13:42;;;;;;;35.75;21.40;;;18.60;99.90;;;;;;5092400;28;20048;-75
2022/08/20 07:16:09;;;;;;;43.40;23.35;;;18.70;99.90;;;;;;5099938;28;20051;-77
2022/08/20 07:18:36;;;;;;;35.70;21.73;;;18.70;99.90;;;;;;5076169;28;20052;-80
2022/08/20 07:21:03;;;;;;;32.65;19.17;;;18.80;99.90;;;;;;5081277;28;20557;-77
2022/08/20 07:23:30;;;;;;;49.72;22.67;;;18.80;99.90;;;;;;5064620;28;20097;-77
2022/08/20 07:25:57;;;;;;;47.72;22.67;;;18.60;99.90;;;;;;5099911;28;20031;-77
2022/08/20 07:28:27;;;;;;;49.28;23.65;;;18.60;99.90;;;;;;5082358;28;20051;-76
2022/08/20 07:33:42;;;;;;;41.83;22.23;;;18.60;99.90;;;;;;5065630;28;20044;-76
2022/08/20 07:36:11;;;;;;;43.08;22.60;;;18.60;99.90;;;;;;5062929;28;20123;-75
2022/08/20 07:38:38;;;;;;;40.80;21.83;;;18.50;99.90;;;;;;5113047;28;20242;-76
2022/08/20 07:41:07;;;;;;;39.10;20.77;;;18.50;99.90;;;;;;5085574;28;20070;-77
2022/08/20 07:43:34;;;;;;;42.85;21.75;;;18.40;99.90;;;;;;5099974;28;20044;-77
2022/08/20 07:46:06;;;;;;;46.17;24.58;;;18.40;99.90;;;;;;5075751;28;20625;-76
2022/08/20 07:48:38;;;;;;;46.33;22.52;;;18.30;99.90;;;;;;5092323;28;20051;-75
2022/08/20 07:51:06;;;;;;;45.55;23.85;;;18.30;99.90;;;;;;5074471;28;20665;-76
2022/08/20 07:53:37;;;;;;;46.17;23.33;;;18.30;99.90;;;;;;5083301;28;20603;-76
2022/08/20 07:56:07;;;;;;;44.88;23.75;;;18.20;99.90;;;;;;5066873;28;20059;-76
2022/08/20 07:58:35;;;;;;;44.70;22.23;;;18.30;99.90;;;;;;5083624;28;20052;-75
2022/08/20 08:01:03;;;;;;;47.33;24.83;;;18.30;99.90;;;;;;5086661;28;20431;-77
2022/08/20 08:03:31;;;;;;;43.25;23.63;;;18.20;99.90;;;;;;5079056;28;20055;-74
2022/08/20 08:06:08;;;;;;;47.90;24.30;;;18.30;99.90;;;;;;5071935;28;20066;-77
2022/08/20 08:08:36;;;;;;;39.88;22.98;;;18.40;99.90;;;;;;5086476;28;20244;-76
2022/08/20 08:11:03;;;;;;;46.70;24.02;;;18.40;99.90;;;;;;5070289;28;20149;-76
2022/08/20 08:13:35;;;;;;;53.33;26.73;;;18.50;99.90;;;;;;5078697;28;20139;-74
2022/08/20 08:16:05;;;;;;;40.15;25.27;;;18.60;99.90;;;;;;5065857;28;20051;-75
2022/08/20 08:18:48;;;;;;;42.30;24.50;;;18.90;99.90;;;;;;5091480;28;20284;-75
2022/08/20 08:21:17;;;;;;;38.95;24.02;;;18.80;99.90;;;;;;5081907;28;20065;-75
2022/08/20 08:23:44;;;;;;;32.70;21.80;;;19.00;99.90;;;;;;5059166;28;20032;-75
2022/08/20 08:26:13;;;;;;;37.35;22.58;;;19.00;99.90;;;;;;5069502;28;20043;-75
2022/08/20 08:28:45;;;;;;;31.98;21.90;;;18.90;99.90;;;;;;5060145;28;20043;-77
2022/08/20 08:31:13;;;;;;;40.80;22.80;;;19.00;99.90;;;;;;5070309;28;20050;-77
2022/08/20 08:33:40;;;;;;;35.95;21.65;;;19.00;99.90;;;;;;5077558;28;20055;-77
2022/08/20 08:36:10;;;;;;;38.47;24.13;;;19.00;99.90;;;;;;5078458;28;20093;-74
2022/08/20 08:38:39;;;;;;;34.65;22.77;;;19.00;99.90;;;;;;5096485;28;20058;-77
2022/08/20 08:41:30;;;;;;;33.42;22.40;;;19.10;99.90;;;;;;5061063;28;20127;-77
2022/08/20 08:44:11;;;;;;;44.30;25.23;;;19.30;99.90;;;;;;5057579;28;20061;-78
2022/08/20 08:46:42;;;;;;;32.53;20.33;;;19.50;99.90;;;;;;5067738;28;20047;-76
2022/08/20 08:49:13;;;;;;;26.27;19.02;;;19.80;99.90;;;;;;5074223;28;20052;-76
2022/08/20 08:51:55;;;;;;;23.42;18.13;;;19.90;99.90;;;;;;5074015;28;20685;-77
2022/08/20 08:54:27;;;;;;;27.17;19.75;;;19.60;99.90;;;;;;5070372;28;20650;-78
2022/08/20 08:56:54;;;;;;;29.08;21.52;;;19.60;99.90;;;;;;5094243;28;20060;-77
2022/08/20 08:59:22;;;;;;;33.00;23.27;;;19.50;99.90;;;;;;5063379;28;20048;-77
2022/08/20 09:01:53;;;;;;;33.28;23.15;;;19.70;99.90;;;;;;5078348;28;20040;-76
2022/08/20 09:04:31;;;;;;;30.17;23.10;;;19.70;99.90;;;;;;5075415;28;20059;-78
2022/08/20 09:07:00;;;;;;;25.55;19.05;;;19.60;99.90;;;;;;5056430;28;20066;-78
2022/08/20 09:09:32;;;;;;;24.10;20.48;;;19.70;99.90;;;;;;5082814;28;20096;-78
2022/08/20 09:12:12;;;;;;;25.38;20.33;;;19.70;99.90;;;;;;5096394;27;20059;-77
2022/08/20 09:14:40;;;;;;;25.77;20.77;;;19.70;99.90;;;;;;5090414;28;20066;-78
2022/08/20 09:17:06;;;;;;;27.75;21.65;;;19.90;99.90;;;;;;5061341;28;20059;-78
2022/08/20 09:19:33;;;;;;;30.75;22.58;;;20.00;99.90;;;;;;5069487;28;20051;-77
2022/08/20 09:22:06;;;;;;;30.85;24.73;;;20.20;99.90;;;;;;5078102;28;20736;-77
2022/08/20 09:24:33;;;;;;;27.25;23.70;;;20.30;99.90;;;;;;5068478;28;20043;-79
2022/08/20 09:27:00;;;;;;;29.38;23.00;;;20.30;99.90;;;;;;5079967;28;20072;-79
2022/08/20 09:29:28;;;;;;;28.48;23.60;;;20.50;99.90;;;;;;5078759;28;20543;-78
2022/08/20 09:32:11;;;;;;;30.75;25.65;;;20.70;99.90;;;;;;5075769;28;20135;-79
2022/08/20 09:34:41;;;;;;;28.30;25.30;;;20.90;99.90;;;;;;5089590;28;20047;-78
2022/08/20 09:37:08;;;;;;;24.25;21.73;;;21.00;99.90;;;;;;5072793;28;20654;-78
2022/08/20 09:39:35;;;;;;;26.27;23.45;;;21.10;99.90;;;;;;5077479;28;20044;-77
2022/08/20 09:42:15;;;;;;;23.45;21.20;;;21.20;99.90;;;;;;5084532;28;20138;-78
2022/08/20 09:44:42;;;;;;;23.58;21.35;;;21.40;99.90;;;;;;5094879;28;20461;-79
2022/08/20 09:47:09;;;;;;;24.27;21.90;;;21.50;99.90;;;;;;5064857;28;20086;-78
2022/08/20 09:49:37;;;;;;;24.02;22.02;;;21.50;99.90;;;;;;5071795;28;20425;-79
2022/08/20 09:52:07;;;;;;;27.40;24.90;;;21.50;99.90;;;;;;5068463;28;20101;-79
2022/08/20 09:54:35;;;;;;;25.90;23.73;;;21.40;99.90;;;;;;5072032;28;20071;-78
2022/08/20 09:57:06;;;;;;;25.60;23.67;;;21.60;99.90;;;;;;5059782;28;20048;-79
2022/08/20 09:59:34;;;;;;;25.83;23.83;;;22.00;99.90;;;;;;5099011;28;20713;-79
2022/08/20 10:02:01;;;;;;;23.27;21.48;;;22.40;99.90;;;;;;5065130;28;20077;-75
2022/08/20 10:04:28;;;;;;;23.30;21.60;;;22.40;99.90;;;;;;5068963;28;20052;-77
2022/08/20 10:06:55;;;;;;;26.02;23.75;;;22.40;99.90;;;;;;5089755;28;20557;-76
2022/08/20 10:09:22;;;;;;;24.17;22.38;;;22.40;99.90;;;;;;5066357;28;20047;-78
2022/08/20 10:11:49;;;;;;;39.28;22.90;;;22.00;99.90;;;;;;5090331;28;20043;-79
2022/08/20 10:14:16;;;;;;;23.80;20.60;;;22.10;99.90;;;;;;5068364;28;20097;-77
2022/08/20 10:16:42;;;;;;;21.30;19.90;;;22.10;99.90;;;;;;5092067;28;20069;-78
2022/08/20 10:19:09;;;;;;;21.90;20.48;;;22.10;99.90;;;;;;5079092;28;20070;-76
2022/08/20 10:21:36;;;;;;;22.50;20.98;;;22.20;99.90;;;;;;5098885;28;20606;-78
2022/08/20 10:24:05;;;;;;;22.08;20.63;;;22.40;99.90;;;;;;5078514;28;20054;-78
2022/08/20 10:26:31;;;;;;;23.55;22.05;;;22.80;99.90;;;;;;5085225;28;20048;-76
2022/08/20 10:28:58;;;;;;;23.60;22.10;;;23.30;99.90;;;;;;5078664;28;20047;-75
2022/08/20 10:31:25;;;;;;;21.45;20.15;;;23.50;99.90;;;;;;5096951;28;20035;-77
2022/08/20 10:33:52;;;;;;;23.17;21.67;;;23.50;99.90;;;;;;5077035;28;20039;-77
2022/08/20 10:36:19;;;;;;;24.77;23.23;;;23.50;99.90;;;;;;5093732;28;20477;-80
2022/08/20 10:38:47;;;;;;;22.02;20.75;;;23.40;99.90;;;;;;5096901;28;20070;-78
2022/08/20 10:41:14;;;;;;;23.10;21.85;;;23.60;99.90;;;;;;5076808;28;20042;-76
2022/08/20 10:43:41;;;;;;;20.40;19.30;;;23.90;99.90;;;;;;5079741;28;20107;-74
2022/08/20 10:46:08;;;;;;;20.20;19.20;;;24.00;99.90;;;;;;5102171;28;20066;-80
2022/08/20 10:48:34;;;;;;;20.60;19.50;;;23.70;99.90;;;;;;5085852;28;20043;-76
2022/08/20 10:51:02;;;;;;;21.20;20.00;;;23.70;99.90;;;;;;5107648;28;20071;-77
2022/08/20 10:53:29;;;;;;;20.80;19.67;;;23.70;99.90;;;;;;5091070;28;20048;-78
2022/08/20 10:55:57;;;;;;;20.77;19.67;;;23.90;99.90;;;;;;5094237;28;20043;-77
2022/08/20 10:58:24;;;;;;;20.27;19.17;;;24.20;99.90;;;;;;5075482;28;20169;-79
2022/08/20 11:00:52;;;;;;;20.27;19.27;;;24.20;99.90;;;;;;5098764;28;20048;-76
2022/08/20 11:03:19;;;;;;;21.25;20.15;;;24.00;99.90;;;;;;5085410;28;20056;-78
2022/08/20 11:05:46;;;;;;;21.90;20.70;;;23.90;99.90;;;;;;5076179;28;20097;-78
2022/08/20 11:08:13;;;;;;;21.10;20.00;;;23.90;99.90;;;;;;5081968;28;20116;-77
2022/08/20 11:10:59;;;;;;;20.98;19.77;;;24.10;99.90;;;;;;5066511;28;20055;-79
2022/08/20 11:13:28;;;;;;;22.58;21.27;;;24.10;99.90;;;;;;5083048;27;20080;-79
2022/08/20 11:15:54;;;;;;;22.35;21.05;;;24.00;99.90;;;;;;5089087;28;20036;-77
2022/08/20 11:18:21;;;;;;;19.17;18.08;;;23.40;99.90;;;;;;5072315;28;20074;-77
2022/08/20 11:20:48;;;;;;;17.33;15.70;;;22.60;99.90;;;;;;5076741;28;20104;-77
2022/08/20 11:23:15;;;;;;;11.63;10.13;;;21.90;99.90;;;;;;5073061;28;20480;-78
2022/08/20 11:25:42;;;;;;;19.67;8.00;;;20.90;99.90;;;;;;5061289;28;20039;-78
2022/08/20 11:28:08;;;;;;;16.27;7.60;;;20.00;99.90;;;;;;5077019;28;20051;-78
2022/08/20 11:30:36;;;;;;;13.80;10.40;;;19.30;99.90;;;;;;5067224;28;20097;-76
2022/08/20 11:33:03;;;;;;;13.80;9.75;;;19.20;99.90;;;;;;5092741;27;20147;-78
2022/08/20 11:35:32;;;;;;;12.43;9.05;;;19.10;99.90;;;;;;5089493;28;20113;-77
2022/08/20 11:38:17;;;;;;;15.82;11.95;;;18.90;99.90;;;;;;5086455;28;20040;-76
2022/08/20 11:40:45;;;;;;;14.90;13.27;;;18.90;99.90;;;;;;5047678;28;20101;-77
2022/08/20 11:43:13;;;;;;;12.98;11.60;;;18.90;99.90;;;;;;5105249;22;20056;-71
2022/08/20 11:45:48;;;;;;;13.95;12.45;;;19.00;99.90;;;;;;5034271;28;20353;-71
2022/08/20 11:48:16;;;;;;;16.50;13.98;;;19.20;99.90;;;;;;5015559;28;20040;-70
2022/08/20 11:50:43;;;;;;;21.63;16.08;;;19.40;99.90;;;;;;5034743;28;20114;-71
2022/08/20 11:53:10;;;;;;;21.55;18.40;;;19.60;99.90;;;;;;5030025;28;20774;-71
2022/08/20 11:55:37;;;;;;;24.02;19.80;;;19.60;99.90;;;;;;5030748;28;21077;-70
2022/08/20 11:58:05;;;;;;;30.13;23.98;;;19.70;99.90;;;;;;5030537;28;20055;-70
2022/08/20 12:00:32;;;;;;;33.92;23.52;;;19.90;99.90;;;;;;5016384;28;20072;-70
2022/08/20 12:03:05;;;;;;;28.88;21.05;;;20.00;99.90;;;;;;5029590;28;20091;-70
2022/08/20 12:05:36;;;;;;;29.45;22.05;;;20.00;99.90;;;;;;5031837;28;20044;-70
2022/08/20 12:08:03;;;;;;;37.75;26.02;;;20.10;99.90;;;;;;5030404;28;20041;-69
2022/08/20 12:10:31;;;;;;;31.92;23.60;;;19.90;99.90;;;;;;5028623;28;20048;-71
2022/08/20 12:12:57;;;;;;;30.42;22.48;;;20.00;99.90;;;;;;5028618;28;20387;-69
2022/08/20 12:15:26;;;;;;;28.00;21.92;;;20.20;99.90;;;;;;5027585;28;20069;-70
2022/08/20 12:17:54;;;;;;;26.95;22.67;;;20.30;99.90;;;;;;5011744;28;20052;-70
2022/08/20 12:20:22;;;;;;;35.67;26.77;;;20.30;99.90;;;;;;5014576;28;20028;-70
2022/08/20 12:22:49;;;;;;;31.77;26.10;;;20.50;99.90;;;;;;5014034;28;20049;-69
2022/08/20 12:25:16;;;;;;;34.78;26.23;;;20.60;99.90;;;;;;5028542;28;20041;-69
2022/08/20 12:27:45;;;;;;;29.08;22.35;;;20.90;99.90;;;;;;5033484;28;20063;-70
2022/08/20 12:30:19;;;;;;;25.05;20.45;;;20.90;99.90;;;;;;5010678;28;20049;-69
2022/08/20 12:32:46;;;;;;;26.23;20.57;;;21.00;99.90;;;;;;5033676;28;20041;-69
2022/08/20 12:35:14;;;;;;;23.60;19.58;;;21.40;99.90;;;;;;5031016;28;20048;-69
2022/08/20 12:37:43;;;;;;;23.30;20.52;;;21.70;99.90;;;;;;5033600;28;20712;-69
2022/08/20 12:40:15;;;;;;;24.50;21.98;;;21.70;99.90;;;;;;5032728;28;20076;-69
2022/08/20 12:42:50;;;;;;;24.25;21.77;;;21.60;99.90;;;;;;5029338;28;20045;-69
2022/08/20 12:45:17;;;;;;;25.60;22.77;;;21.60;99.90;;;;;;5032028;28;20131;-69
2022/08/20 12:47:46;;;;;;;24.65;22.30;;;21.80;99.90;;;;;;5030831;28;20061;-68
2022/08/20 12:50:17;;;;;;;24.73;22.50;;;22.10;99.90;;;;;;5023456;28;20073;-69
2022/08/20 12:52:45;;;;;;;21.83;19.88;;;22.40;99.90;;;;;;5012264;28;20110;-68